createdAt,value
2017-11-07T00:00:56.269Z,4.50
2017-11-07T00:03:23.797Z,4.40
2017-11-07T00:05:51.341Z,4.30
2017-11-07T00:08:18.867Z,4.30
2017-11-07T00:10:46.411Z,4.20
2017-11-07T00:13:13.936Z,4.10
2017-11-07T00:15:41.878Z,4.00
2017-11-07T00:18:09.413Z,4.10
2017-11-07T00:20:36.937Z,4.00
2017-11-07T00:23:04.490Z,3.90
2017-11-07T00:25:32.041Z,3.90
2017-11-07T00:27:59.575Z,3.80
2017-11-07T00:30:27.498Z,3.70
2017-11-07T00:32:55.046Z,3.70
2017-11-07T00:35:22.573Z,3.60
2017-11-07T00:37:50.113Z,3.60
2017-11-07T00:40:17.641Z,3.60
2017-11-07T00:42:45.276Z,3.50
2017-11-07T00:45:12.800Z,3.40
2017-11-07T00:47:40.330Z,3.30
2017-11-07T00:50:07.866Z,3.30
2017-11-07T00:52:35.414Z,3.30
2017-11-07T00:55:02.985Z,3.20
2017-11-07T00:57:30.508Z,3.10
2017-11-07T00:59:58.082Z,3.10
2017-11-07T01:02:25.597Z,3.10
2017-11-07T01:04:53.130Z,3.00
2017-11-07T01:07:20.670Z,3.10
2017-11-07T01:09:48.222Z,3.10
2017-11-07T01:12:15.749Z,3.10
2017-11-07T01:14:43.267Z,3.10
2017-11-07T01:17:10.813Z,3.10
2017-11-07T01:19:38.774Z,3.30
2017-11-07T01:22:06.346Z,3.30
2017-11-07T01:24:33.874Z,3.40
2017-11-07T01:27:01.419Z,3.50
2017-11-07T01:29:28.984Z,3.60
2017-11-07T01:31:56.914Z,3.80
2017-11-07T01:34:24.433Z,3.80
2017-11-07T01:36:52.393Z,3.80
2017-11-07T01:39:20.313Z,3.90
2017-11-07T01:41:47.837Z,3.90
2017-11-07T01:44:15.379Z,3.80
2017-11-07T01:46:42.895Z,3.80
2017-11-07T01:49:10.828Z,3.70
2017-11-07T01:51:38.370Z,3.70
2017-11-07T01:54:05.919Z,3.60
2017-11-07T01:56:33.446Z,3.60
2017-11-07T01:59:00.992Z,3.50
2017-11-07T02:01:28.520Z,3.50
2017-11-07T02:03:56.046Z,3.50
2017-11-07T02:06:23.578Z,3.40
2017-11-07T02:08:51.507Z,3.40
2017-11-07T02:11:19.053Z,3.40
2017-11-07T02:13:46.583Z,3.30
2017-11-07T02:16:14.123Z,3.30
2017-11-07T02:18:41.645Z,3.20
2017-11-07T02:21:09.574Z,3.20
2017-11-07T02:23:37.099Z,3.20
2017-11-07T02:26:05.029Z,3.10
2017-11-07T02:28:32.570Z,3.10
2017-11-07T02:31:00.096Z,3.00
2017-11-07T02:33:27.642Z,3.00
2017-11-07T02:35:55.175Z,3.00
2017-11-07T02:38:22.744Z,2.90
2017-11-07T02:40:50.295Z,2.80
2017-11-07T02:43:17.814Z,2.80
2017-11-07T02:45:45.354Z,2.70
2017-11-07T02:48:13.278Z,2.60
2017-11-07T02:50:40.810Z,2.60
2017-11-07T02:53:08.358Z,2.60
2017-11-07T02:55:36.290Z,2.50
2017-11-07T02:58:03.806Z,2.50
2017-11-07T03:00:31.361Z,2.50
2017-11-07T03:02:58.889Z,2.50
2017-11-07T03:05:26.399Z,2.40
2017-11-07T03:07:53.939Z,2.40
2017-11-07T03:10:21.473Z,2.30
2017-11-07T03:12:49.012Z,2.30
2017-11-07T03:15:16.538Z,2.20
2017-11-07T03:17:44.069Z,2.20
2017-11-07T03:20:11.602Z,2.20
2017-11-07T03:22:39.189Z,2.20
2017-11-07T03:25:06.716Z,2.20
2017-11-07T03:27:34.248Z,2.10
2017-11-07T03:30:01.814Z,2.10
2017-11-07T03:32:29.329Z,2.00
2017-11-07T03:34:57.267Z,2.00
2017-11-07T03:37:25.214Z,1.90
2017-11-07T03:39:52.764Z,2.00
2017-11-07T03:42:20.281Z,1.90
2017-11-07T03:44:47.806Z,1.90
2017-11-07T03:47:15.341Z,1.90
2017-11-07T03:49:42.867Z,1.90
2017-11-07T03:52:10.410Z,1.90
2017-11-07T03:54:38.332Z,1.90
2017-11-07T03:57:05.879Z,1.90
2017-11-07T03:59:33.401Z,1.90
2017-11-07T04:02:00.964Z,1.90
2017-11-07T04:04:28.486Z,1.90
2017-11-07T04:06:56.018Z,1.90
2017-11-07T04:09:23.558Z,1.90
2017-11-07T04:11:51.087Z,1.90
2017-11-07T04:14:19.035Z,2.00
2017-11-07T04:16:46.566Z,2.00
2017-11-07T04:19:14.102Z,2.00
2017-11-07T04:21:41.629Z,2.00
2017-11-07T04:24:09.173Z,1.90
2017-11-07T04:26:36.700Z,1.90
2017-11-07T04:29:04.258Z,1.90
2017-11-07T04:31:31.790Z,1.90
2017-11-07T04:33:59.312Z,2.00
2017-11-07T04:36:26.856Z,2.00
2017-11-07T04:38:54.387Z,2.10
2017-11-07T04:41:22.331Z,2.10
2017-11-07T04:43:49.854Z,2.10
2017-11-07T04:46:17.412Z,2.10
2017-11-07T04:48:45.332Z,2.20
2017-11-07T04:51:12.864Z,2.20
2017-11-07T04:53:40.777Z,2.20
2017-11-07T04:56:08.313Z,2.30
2017-11-07T04:58:36.254Z,2.30
2017-11-07T05:01:03.780Z,2.30
2017-11-07T05:03:31.340Z,2.30
2017-11-07T05:05:58.873Z,2.30
2017-11-07T05:08:26.419Z,2.30
2017-11-07T05:10:53.954Z,2.30
2017-11-07T05:13:21.496Z,2.30
2017-11-07T05:15:49.036Z,2.20
2017-11-07T05:18:16.588Z,2.20
2017-11-07T05:20:44.111Z,2.20
2017-11-07T05:23:11.634Z,2.20
2017-11-07T05:25:39.170Z,2.20
2017-11-07T05:28:06.690Z,2.10
2017-11-07T05:30:34.235Z,2.20
2017-11-07T05:33:01.766Z,2.20
2017-11-07T05:35:29.316Z,2.30
2017-11-07T05:37:56.839Z,2.30
2017-11-07T05:40:24.378Z,2.30
2017-11-07T05:42:51.919Z,2.30
2017-11-07T05:45:19.482Z,2.30
2017-11-07T05:47:46.998Z,2.40
2017-11-07T05:50:14.521Z,2.30
2017-11-07T05:52:42.056Z,2.30
2017-11-07T05:55:09.589Z,2.30
2017-11-07T05:57:37.133Z,2.30
2017-11-07T06:00:04.663Z,2.30
2017-11-07T06:02:32.603Z,2.20
2017-11-07T06:05:00.138Z,2.20
2017-11-07T06:07:27.672Z,2.10
2017-11-07T06:09:55.200Z,2.10
2017-11-07T06:12:22.732Z,2.00
2017-11-07T06:14:50.639Z,1.80
2017-11-07T06:17:18.172Z,1.80
2017-11-07T06:19:46.111Z,1.70
2017-11-07T06:22:13.645Z,1.70
2017-11-07T06:24:41.561Z,1.70
2017-11-07T06:27:09.096Z,1.70
2017-11-07T06:29:36.621Z,1.70
2017-11-07T06:32:04.155Z,1.60
2017-11-07T06:34:31.681Z,1.60
2017-11-07T06:36:59.216Z,1.60
2017-11-07T06:39:26.751Z,1.50
2017-11-07T06:41:54.289Z,1.50
2017-11-07T06:44:21.844Z,1.50
2017-11-07T06:46:49.374Z,1.50
2017-11-07T06:49:16.919Z,1.50
2017-11-07T06:51:44.853Z,1.40
2017-11-07T06:54:12.373Z,1.50
2017-11-07T06:56:40.319Z,1.40
2017-11-07T06:59:07.839Z,1.50
2017-11-07T07:01:35.767Z,1.40
2017-11-07T07:04:03.314Z,1.50
2017-11-07T07:06:30.875Z,1.40
2017-11-07T07:08:59.896Z,1.40
2017-11-07T07:11:27.419Z,1.50
2017-11-07T07:13:54.953Z,1.50
2017-11-07T07:16:22.474Z,1.50
2017-11-07T07:18:50.402Z,1.60
2017-11-07T07:21:17.930Z,1.60
2017-11-07T07:23:45.471Z,1.60
2017-11-07T07:26:12.995Z,1.80
2017-11-07T07:28:40.545Z,1.90
2017-11-07T07:31:08.074Z,2.00
2017-11-07T07:33:35.616Z,2.10
2017-11-07T07:36:03.151Z,2.20
2017-11-07T07:38:31.084Z,2.40
2017-11-07T07:40:58.607Z,2.40
2017-11-07T07:43:26.544Z,2.60
2017-11-07T07:45:54.072Z,2.60
2017-11-07T07:48:21.615Z,2.80
2017-11-07T07:50:49.136Z,2.80
2017-11-07T07:53:16.665Z,2.90
2017-11-07T07:55:44.584Z,3.10
2017-11-07T07:58:12.117Z,3.10
2017-11-07T08:00:39.641Z,3.20
2017-11-07T08:03:07.179Z,3.30
2017-11-07T08:05:34.708Z,3.30
2017-11-07T08:08:02.260Z,3.40
2017-11-07T08:10:29.784Z,3.50
2017-11-07T08:12:57.722Z,3.50
2017-11-07T08:15:25.241Z,3.60
2017-11-07T08:17:52.795Z,3.60
2017-11-07T08:20:20.731Z,3.70
2017-11-07T08:22:48.289Z,3.70
2017-11-07T08:25:15.810Z,3.70
2017-11-07T08:27:43.344Z,3.80
2017-11-07T08:30:10.887Z,3.90
2017-11-07T08:32:38.409Z,3.90
2017-11-07T08:35:05.945Z,4.10
2017-11-07T08:37:33.488Z,4.30
2017-11-07T08:40:01.419Z,4.70
2017-11-07T08:42:28.939Z,4.80
2017-11-07T08:44:56.878Z,5.10
2017-11-07T08:47:24.406Z,5.10
2017-11-07T08:49:51.933Z,5.30
2017-11-07T08:52:19.464Z,5.60
2017-11-07T08:54:46.997Z,5.80
2017-11-07T08:57:14.923Z,6.10
2017-11-07T08:59:42.468Z,6.10
2017-11-07T09:02:09.992Z,6.10
2017-11-07T09:04:37.526Z,6.20
2017-11-07T09:07:05.049Z,6.20
2017-11-07T09:09:32.583Z,6.30
2017-11-07T09:12:00.095Z,6.50
2017-11-07T09:14:28.026Z,6.80
2017-11-07T09:16:55.548Z,6.80
2017-11-07T09:19:23.112Z,7.00
2017-11-07T09:21:50.624Z,7.20
2017-11-07T09:24:18.151Z,7.50
2017-11-07T09:26:45.676Z,7.60
2017-11-07T09:29:13.222Z,7.80
2017-11-07T09:31:40.760Z,8.00
2017-11-07T09:34:08.304Z,8.10
2017-11-07T09:36:35.827Z,8.20
2017-11-07T09:39:03.386Z,8.30
2017-11-07T09:41:31.313Z,8.20
2017-11-07T09:43:58.855Z,8.20
2017-11-07T09:46:26.386Z,8.30
2017-11-07T09:48:53.910Z,8.40
2017-11-07T09:51:21.470Z,8.30
2017-11-07T09:53:48.988Z,8.30
2017-11-07T09:56:16.523Z,8.30
2017-11-07T09:58:44.048Z,8.40
2017-11-07T10:01:11.592Z,8.50
2017-11-07T10:03:39.123Z,8.70
2017-11-07T10:06:06.652Z,8.90
2017-11-07T10:08:34.176Z,9.00
2017-11-07T10:11:01.728Z,9.10
2017-11-07T10:13:29.651Z,9.40
2017-11-07T10:15:57.209Z,9.40
2017-11-07T10:18:24.734Z,9.60
2017-11-07T10:20:52.293Z,9.60
2017-11-07T10:23:19.822Z,9.60
2017-11-07T10:25:47.381Z,9.60
2017-11-07T10:28:14.916Z,9.60
2017-11-07T10:30:42.467Z,9.70
2017-11-07T10:33:09.989Z,9.80
2017-11-07T10:35:38.454Z,9.80
2017-11-07T10:38:06.384Z,10.00
2017-11-07T10:40:33.930Z,10.00
2017-11-07T10:43:01.471Z,10.10
2017-11-07T10:45:29.022Z,10.20
2017-11-07T10:47:56.980Z,10.30
2017-11-07T10:50:24.536Z,10.30
2017-11-07T10:52:52.077Z,10.40
2017-11-07T10:55:20.019Z,10.50
2017-11-07T10:57:47.562Z,10.50
2017-11-07T11:00:15.118Z,10.40
2017-11-07T11:02:42.641Z,10.40
2017-11-07T11:05:10.189Z,10.50
2017-11-07T11:07:37.723Z,10.50
2017-11-07T11:10:05.664Z,10.10
2017-11-07T11:12:33.214Z,10.10
2017-11-07T11:15:00.740Z,9.90
2017-11-07T11:17:28.678Z,9.50
2017-11-07T11:19:56.211Z,9.50
2017-11-07T11:22:23.748Z,9.30
2017-11-07T11:24:51.269Z,9.20
2017-11-07T11:27:18.806Z,9.10
2017-11-07T11:29:46.729Z,8.90
2017-11-07T11:32:14.271Z,9.00
2017-11-07T11:34:42.188Z,8.70
2017-11-07T11:37:09.751Z,8.70
2017-11-07T11:39:37.277Z,8.70
2017-11-07T11:42:04.817Z,8.60
2017-11-07T11:44:32.341Z,8.50
2017-11-07T11:46:59.901Z,8.50
2017-11-07T11:49:27.412Z,8.50
2017-11-07T11:51:54.950Z,8.50
2017-11-07T11:54:22.882Z,8.40
2017-11-07T11:56:50.414Z,8.40
2017-11-07T11:59:17.943Z,8.40
2017-11-07T12:01:45.480Z,8.40
2017-11-07T12:04:13.003Z,8.40
2017-11-07T12:06:40.925Z,8.40
2017-11-07T12:09:08.459Z,8.40
2017-11-07T12:11:36.404Z,8.40
2017-11-07T12:14:03.932Z,8.40
2017-11-07T12:16:31.476Z,8.30
2017-11-07T12:18:59.397Z,8.40
2017-11-07T12:21:26.937Z,8.30
2017-11-07T12:23:54.857Z,8.40
2017-11-07T12:26:22.399Z,8.30
2017-11-07T12:28:49.914Z,8.30
2017-11-07T12:31:17.440Z,8.30
2017-11-07T12:33:44.951Z,8.30
2017-11-07T12:36:12.494Z,8.20
2017-11-07T12:38:40.044Z,8.30
2017-11-07T12:41:07.968Z,8.30
2017-11-07T12:43:35.535Z,8.30
2017-11-07T12:46:03.052Z,8.20
2017-11-07T12:48:30.591Z,8.30
2017-11-07T12:51:09.978Z,8.30
2017-11-07T12:53:37.522Z,8.30
2017-11-07T12:56:05.045Z,8.30
2017-11-07T12:58:32.574Z,8.30
2017-11-07T13:01:00.097Z,8.30
2017-11-07T13:03:27.639Z,8.20
2017-11-07T13:05:55.569Z,8.20
2017-11-07T13:08:23.101Z,8.20
2017-11-07T13:10:51.014Z,8.20
2017-11-07T13:13:18.583Z,8.20
2017-11-07T13:15:46.100Z,8.20
2017-11-07T13:18:13.658Z,8.20
2017-11-07T13:20:41.202Z,8.20
2017-11-07T13:23:08.751Z,8.20
2017-11-07T13:25:36.275Z,8.20
2017-11-07T13:28:03.808Z,8.10
2017-11-07T13:30:31.335Z,8.20
2017-11-07T13:32:58.875Z,8.10
2017-11-07T13:35:26.413Z,8.10
2017-11-07T13:37:53.951Z,8.10
2017-11-07T13:40:21.869Z,8.10
2017-11-07T13:42:49.411Z,8.10
2017-11-07T13:45:16.956Z,8.10
2017-11-07T13:47:44.494Z,8.10
2017-11-07T13:50:12.026Z,8.00
2017-11-07T13:52:39.960Z,8.00
2017-11-07T13:55:07.486Z,8.00
2017-11-07T13:57:35.020Z,8.00
2017-11-07T14:00:02.550Z,8.00
2017-11-07T14:02:30.077Z,8.00
2017-11-07T14:04:57.617Z,8.00
2017-11-07T14:07:25.155Z,8.00
2017-11-07T14:09:52.707Z,8.00
2017-11-07T14:12:20.632Z,8.00
2017-11-07T14:14:48.161Z,8.00
2017-11-07T14:17:15.685Z,8.00
2017-11-07T14:19:43.244Z,8.00
2017-11-07T14:22:10.763Z,8.00
2017-11-07T14:24:38.301Z,7.90
2017-11-07T14:27:05.813Z,8.00
2017-11-07T14:29:33.744Z,8.00
2017-11-07T14:32:01.271Z,8.00
2017-11-07T14:34:29.212Z,8.00
2017-11-07T14:36:56.732Z,8.00
2017-11-07T14:39:24.280Z,8.00
2017-11-07T14:41:52.204Z,7.90
2017-11-07T14:44:19.749Z,8.00
2017-11-07T14:46:47.305Z,8.00
2017-11-07T14:49:15.308Z,7.90
2017-11-07T14:51:42.844Z,7.90
2017-11-07T14:54:10.765Z,7.90
2017-11-07T14:56:38.309Z,7.90
2017-11-07T14:59:05.834Z,7.90
2017-11-07T15:01:33.379Z,7.90
2017-11-07T15:04:00.909Z,7.80
2017-11-07T15:06:28.460Z,7.80
2017-11-07T15:08:55.991Z,7.80
2017-11-07T15:11:23.584Z,7.80
2017-11-07T15:13:51.121Z,7.70
2017-11-07T15:16:18.654Z,7.80
2017-11-07T15:18:46.188Z,7.70
2017-11-07T15:21:13.730Z,7.70
2017-11-07T15:23:41.674Z,7.70
2017-11-07T15:26:09.200Z,7.70
2017-11-07T15:28:36.750Z,7.70
2017-11-07T15:31:04.677Z,7.70
2017-11-07T15:33:32.221Z,7.70
2017-11-07T15:35:59.741Z,7.60
2017-11-07T15:38:27.290Z,7.50
2017-11-07T15:40:54.823Z,7.50
2017-11-07T15:43:22.848Z,7.50
2017-11-07T15:45:50.418Z,7.50
2017-11-07T15:48:18.057Z,7.40
2017-11-07T15:50:45.588Z,7.40
2017-11-07T15:53:13.127Z,7.40
2017-11-07T15:55:40.654Z,7.40
2017-11-07T15:58:08.602Z,7.30
2017-11-07T16:00:36.257Z,7.40
2017-11-07T16:03:03.794Z,7.30
2017-11-07T16:05:31.325Z,7.30
2017-11-07T16:07:58.860Z,7.20
2017-11-07T16:10:26.382Z,7.20
2017-11-07T16:12:54.318Z,7.20
2017-11-07T16:15:21.863Z,7.20
2017-11-07T16:17:49.429Z,7.20
2017-11-07T16:20:16.963Z,7.10
2017-11-07T16:22:44.496Z,7.10
2017-11-07T16:25:12.038Z,7.10
2017-11-07T16:27:39.571Z,7.10
2017-11-07T16:30:07.110Z,7.10
2017-11-07T16:32:34.641Z,7.00
2017-11-07T16:35:02.197Z,7.00
2017-11-07T16:37:29.730Z,7.00
2017-11-07T16:39:57.274Z,7.00
2017-11-07T16:42:24.801Z,7.00
2017-11-07T16:44:52.350Z,7.00
2017-11-07T16:47:19.884Z,7.00
2017-11-07T16:49:47.423Z,7.00
2017-11-07T16:52:21.339Z,7.00
2017-11-07T16:54:48.886Z,7.10
2017-11-07T16:57:16.448Z,7.00
2017-11-07T16:59:43.994Z,7.00
2017-11-07T17:02:11.522Z,7.00
2017-11-07T17:04:39.065Z,7.00
2017-11-07T17:07:06.598Z,7.00
2017-11-07T17:09:34.545Z,7.10
2017-11-07T17:12:02.066Z,7.10
2017-11-07T17:14:29.596Z,7.00
2017-11-07T17:16:57.132Z,7.10
2017-11-07T17:19:24.669Z,7.10
2017-11-07T17:21:52.193Z,7.10
2017-11-07T17:24:19.727Z,7.10
2017-11-07T17:26:47.256Z,7.10
2017-11-07T17:29:14.794Z,7.10
2017-11-07T17:31:42.323Z,7.10
2017-11-07T17:34:10.263Z,7.10
2017-11-07T17:36:37.817Z,7.10
2017-11-07T17:39:05.359Z,7.10
2017-11-07T17:41:32.882Z,7.10
2017-11-07T17:44:00.418Z,7.10
2017-11-07T17:46:27.954Z,7.10
2017-11-07T17:48:55.882Z,7.10
2017-11-07T17:51:23.414Z,7.10
2017-11-07T17:53:51.334Z,7.10
2017-11-07T17:56:18.883Z,7.10
2017-11-07T17:58:46.427Z,7.10
2017-11-07T18:01:13.978Z,7.10
2017-11-07T18:03:41.507Z,7.20
2017-11-07T18:06:09.040Z,7.20
2017-11-07T18:08:36.961Z,7.20
2017-11-07T18:11:04.502Z,7.30
2017-11-07T18:13:32.037Z,7.20
2017-11-07T18:15:59.572Z,7.30
2017-11-07T18:18:27.091Z,7.30
2017-11-07T18:20:54.635Z,7.30
2017-11-07T18:23:22.387Z,7.30
2017-11-07T18:25:49.939Z,7.30
2017-11-07T18:28:17.470Z,7.30
2017-11-07T18:30:45.003Z,7.40
2017-11-07T18:33:12.523Z,7.40
2017-11-07T18:35:40.059Z,7.40
2017-11-07T18:38:07.581Z,7.40
2017-11-07T18:40:35.133Z,7.40
2017-11-07T18:43:02.658Z,7.40
2017-11-07T18:45:30.214Z,7.40
2017-11-07T18:47:57.743Z,7.40
2017-11-07T18:50:25.306Z,7.40
2017-11-07T18:52:52.842Z,7.40
2017-11-07T18:55:20.385Z,7.40
2017-11-07T18:57:48.311Z,7.40
2017-11-07T19:00:15.859Z,7.40
2017-11-07T19:02:43.382Z,7.40
2017-11-07T19:05:11.065Z,7.30
2017-11-07T19:07:38.593Z,7.40
2017-11-07T19:10:06.127Z,7.40
2017-11-07T19:12:34.058Z,7.40
2017-11-07T19:15:01.581Z,7.40
2017-11-07T19:17:29.137Z,7.40
2017-11-07T19:19:56.706Z,7.40
2017-11-07T19:22:24.263Z,7.40
2017-11-07T19:24:51.798Z,7.30
2017-11-07T19:27:19.401Z,7.30
2017-11-07T19:29:46.925Z,7.30
2017-11-07T19:32:14.457Z,7.30
2017-11-07T19:34:41.976Z,7.30
2017-11-07T19:37:09.517Z,7.30
2017-11-07T19:39:37.036Z,7.30
2017-11-07T19:42:04.585Z,7.20
2017-11-07T19:44:32.115Z,7.20
2017-11-07T19:46:59.664Z,7.20
2017-11-07T19:49:27.198Z,7.20
2017-11-07T19:51:54.728Z,7.10
2017-11-07T19:54:22.808Z,7.10
2017-11-07T19:56:50.355Z,7.10
2017-11-07T19:59:17.922Z,7.00
2017-11-07T20:01:45.464Z,7.00
2017-11-07T20:04:12.999Z,6.90
2017-11-07T20:06:40.548Z,6.80
2017-11-07T20:09:08.085Z,6.70
2017-11-07T20:11:35.628Z,6.60
2017-11-07T20:14:03.543Z,6.60
2017-11-07T20:16:31.083Z,6.60
2017-11-07T20:18:58.625Z,6.60
2017-11-07T20:21:26.254Z,6.50
2017-11-07T20:23:53.772Z,6.50
2017-11-07T20:26:21.315Z,6.40
2017-11-07T20:28:48.837Z,6.30
2017-11-07T20:31:16.766Z,6.20
2017-11-07T20:33:44.328Z,6.20
2017-11-07T20:36:11.844Z,6.10
2017-11-07T20:38:39.406Z,6.00
2017-11-07T20:41:07.359Z,5.90
2017-11-07T20:43:34.900Z,5.90
2017-11-07T20:46:02.420Z,5.80
2017-11-07T20:48:29.975Z,5.70
2017-11-07T20:50:57.501Z,5.70
2017-11-07T20:53:25.432Z,5.60
2017-11-07T20:55:52.953Z,5.60
2017-11-07T20:58:20.880Z,5.60
2017-11-07T21:00:48.403Z,5.50
2017-11-07T21:03:16.335Z,5.50
2017-11-07T21:05:43.856Z,5.50
2017-11-07T21:08:11.401Z,5.40
2017-11-07T21:10:38.943Z,5.40
2017-11-07T21:13:06.486Z,5.40
2017-11-07T21:15:34.013Z,5.30
2017-11-07T21:18:01.562Z,5.30
2017-11-07T21:20:35.688Z,5.20
2017-11-07T21:23:03.225Z,5.20
2017-11-07T21:25:30.745Z,5.10
2017-11-07T21:27:58.433Z,5.10
2017-11-07T21:30:25.953Z,5.10
2017-11-07T21:32:53.488Z,5.10
2017-11-07T21:35:22.947Z,5.10
2017-11-07T21:37:51.498Z,5.10
2017-11-07T21:40:19.443Z,5.10
2017-11-07T21:42:46.998Z,5.20
2017-11-07T21:45:14.533Z,5.10
2017-11-07T21:47:42.465Z,5.10
2017-11-07T21:50:09.994Z,5.10
2017-11-07T21:52:37.540Z,5.10
2017-11-07T21:55:05.067Z,5.20
2017-11-07T21:57:32.609Z,5.20
2017-11-07T22:00:00.140Z,5.20
2017-11-07T22:02:27.677Z,5.30
2017-11-07T22:04:55.238Z,5.30
2017-11-07T22:07:22.769Z,5.40
2017-11-07T22:09:53.144Z,5.40
2017-11-07T22:12:20.678Z,5.50
2017-11-07T22:14:48.629Z,5.50
2017-11-07T22:17:19.151Z,5.60
2017-11-07T22:19:46.698Z,5.50
2017-11-07T22:22:14.240Z,5.60
2017-11-07T22:24:41.788Z,5.60
2017-11-07T22:27:09.309Z,5.70
2017-11-07T22:29:36.865Z,5.70
2017-11-07T22:32:04.390Z,5.70
2017-11-07T22:34:31.911Z,5.70
2017-11-07T22:36:59.855Z,5.80
2017-11-07T22:39:27.384Z,5.80
2017-11-07T22:41:54.946Z,5.90
2017-11-07T22:44:22.865Z,5.90
2017-11-07T22:46:50.401Z,6.00
2017-11-07T22:49:17.927Z,5.90
2017-11-07T22:51:45.461Z,6.00
2017-11-07T22:54:12.978Z,5.90
2017-11-07T22:56:40.544Z,6.00
2017-11-07T22:59:08.064Z,6.00
2017-11-07T23:01:35.581Z,6.00
2017-11-07T23:04:03.129Z,5.90
2017-11-07T23:06:30.663Z,5.90
2017-11-07T23:08:58.218Z,5.90
2017-11-07T23:11:25.739Z,5.90
2017-11-07T23:13:53.287Z,5.90
2017-11-07T23:16:20.823Z,5.90
2017-11-07T23:18:48.379Z,5.90
2017-11-07T23:21:15.911Z,5.90
2017-11-07T23:23:43.475Z,5.80
2017-11-07T23:26:10.997Z,5.80
2017-11-07T23:28:38.525Z,5.80
2017-11-07T23:31:06.073Z,5.80
2017-11-07T23:33:33.992Z,5.80
2017-11-07T23:36:01.532Z,5.90
2017-11-07T23:38:29.054Z,5.80
2017-11-07T23:40:56.604Z,5.90
2017-11-07T23:43:24.136Z,5.90
2017-11-07T23:45:52.082Z,5.90
2017-11-07T23:48:19.605Z,5.90
2017-11-07T23:50:47.160Z,5.90
2017-11-07T23:53:15.072Z,5.90
2017-11-07T23:55:42.630Z,6.00
2017-11-07T23:58:10.159Z,6.00
